sensor_id;sensor_type;location;lat;lon;timestamp;pressure;altitude;pressure_sealevel;temperature;humidity
53754;BME280;39667;52.274;20.964;2022-07-01T00:02:15;100120.78;;;24.95;53.45
53754;BME280;39667;52.274;20.964;2022-07-01T00:04:45;100115.23;;;24.91;53.78
53754;BME280;39667;52.274;20.964;2022-07-01T00:07:46;100118.73;;;24.88;54.05
53754;BME280;39667;52.274;20.964;2022-07-01T00:14:31;100114.52;;;24.79;54.67
53754;BME280;39667;52.274;20.964;2022-07-01T00:25:28;100119.06;;;24.71;55.48
53754;BME280;39667;52.274;20.964;2022-07-01T00:31:11;100119.66;;;24.67;55.93
53754;BME280;39667;52.274;20.964;2022-07-01T00:33:37;100123.95;;;24.68;55.98
53754;BME280;39667;52.274;20.964;2022-07-01T00:39:45;100127.55;;;24.66;56.20
53754;BME280;39667;52.274;20.964;2022-07-01T00:42:12;100128.27;;;24.65;56.30
53754;BME280;39667;52.274;20.964;2022-07-01T00:44:38;100128.67;;;24.63;56.59
53754;BME280;39667;52.274;20.964;2022-07-01T00:47:11;100126.96;;;24.59;56.68
53754;BME280;39667;52.274;20.964;2022-07-01T00:49:38;100129.52;;;24.58;56.90
53754;BME280;39667;52.274;20.964;2022-07-01T00:52:07;100131.23;;;24.59;56.80
53754;BME280;39667;52.274;20.964;2022-07-01T00:54:36;100135.55;;;24.59;56.95
53754;BME280;39667;52.274;20.964;2022-07-01T00:57:07;100128.88;;;24.59;56.86
53754;BME280;39667;52.274;20.964;2022-07-01T01:00:04;100133.05;;;24.62;56.97
53754;BME280;39667;52.274;20.964;2022-07-01T01:02:31;100135.57;;;24.61;57.24
53754;BME280;39667;52.274;20.964;2022-07-01T01:04:57;100133.39;;;24.59;57.16
53754;BME280;39667;52.274;20.964;2022-07-01T01:07:25;100141.19;;;24.61;57.14
53754;BME280;39667;52.274;20.964;2022-07-01T01:09:52;100144.56;;;24.62;57.30
53754;BME280;39667;52.274;20.964;2022-07-01T01:12:19;100146.00;;;24.61;57.15
53754;BME280;39667;52.274;20.964;2022-07-01T01:14:49;100150.92;;;24.63;57.37
53754;BME280;39667;52.274;20.964;2022-07-01T01:17:17;100160.13;;;24.66;57.35
53754;BME280;39667;52.274;20.964;2022-07-01T01:19:44;100180.16;;;24.67;57.13
53754;BME280;39667;52.274;20.964;2022-07-01T01:22:14;100185.90;;;24.65;57.55
53754;BME280;39667;52.274;20.964;2022-07-01T01:24:41;100188.14;;;24.54;57.62
53754;BME280;39667;52.274;20.964;2022-07-01T01:27:08;100197.16;;;24.41;57.54
53754;BME280;39667;52.274;20.964;2022-07-01T01:29:35;100200.48;;;24.32;57.86
53754;BME280;39667;52.274;20.964;2022-07-01T01:32:29;100210.00;;;24.27;57.98
53754;BME280;39667;52.274;20.964;2022-07-01T01:34:55;100214.80;;;24.25;58.11
53754;BME280;39667;52.274;20.964;2022-07-01T01:37:21;100216.66;;;24.16;57.91
53754;BME280;39667;52.274;20.964;2022-07-01T01:39:48;100226.66;;;24.12;57.72
53754;BME280;39667;52.274;20.964;2022-07-01T01:42:14;100234.54;;;24.07;57.49
53754;BME280;39667;52.274;20.964;2022-07-01T01:44:40;100234.16;;;23.93;57.65
53754;BME280;39667;52.274;20.964;2022-07-01T01:47:07;100221.12;;;23.84;57.57
53754;BME280;39667;52.274;20.964;2022-07-01T01:49:34;100214.73;;;23.78;57.53
53754;BME280;39667;52.274;20.964;2022-07-01T01:52:00;100220.39;;;23.79;57.60
53754;BME280;39667;52.274;20.964;2022-07-01T01:54:27;100243.23;;;23.84;57.34
53754;BME280;39667;52.274;20.964;2022-07-01T01:56:53;100237.44;;;23.85;57.54
53754;BME280;39667;52.274;20.964;2022-07-01T01:59:19;100241.15;;;23.83;57.53
53754;BME280;39667;52.274;20.964;2022-07-01T02:01:46;100245.66;;;23.83;57.51
53754;BME280;39667;52.274;20.964;2022-07-01T02:04:12;100246.75;;;23.83;57.46
53754;BME280;39667;52.274;20.964;2022-07-01T02:06:38;100245.36;;;23.77;57.20
53754;BME280;39667;52.274;20.964;2022-07-01T02:09:07;100249.33;;;23.74;57.08
53754;BME280;39667;52.274;20.964;2022-07-01T02:11:35;100247.61;;;23.72;57.25
53754;BME280;39667;52.274;20.964;2022-07-01T02:14:01;100247.20;;;23.73;57.30
53754;BME280;39667;52.274;20.964;2022-07-01T02:16:27;100243.67;;;23.75;56.94
53754;BME280;39667;52.274;20.964;2022-07-01T02:18:53;100244.34;;;23.76;56.97
53754;BME280;39667;52.274;20.964;2022-07-01T02:21:20;100242.48;;;23.74;56.83
53754;BME280;39667;52.274;20.964;2022-07-01T02:23:46;100246.66;;;23.73;56.97
53754;BME280;39667;52.274;20.964;2022-07-01T02:26:12;100236.05;;;23.73;56.88
53754;BME280;39667;52.274;20.964;2022-07-01T02:28:38;100224.36;;;23.73;56.82
53754;BME280;39667;52.274;20.964;2022-07-01T02:31:05;100226.90;;;23.73;57.05
53754;BME280;39667;52.274;20.964;2022-07-01T02:33:31;100236.54;;;23.74;56.98
53754;BME280;39667;52.274;20.964;2022-07-01T02:35:57;100245.89;;;23.74;57.21
53754;BME280;39667;52.274;20.964;2022-07-01T02:38:25;100248.34;;;23.72;57.30
53754;BME280;39667;52.274;20.964;2022-07-01T02:40:51;100253.02;;;23.69;56.94
53754;BME280;39667;52.274;20.964;2022-07-01T02:43:18;100251.81;;;23.66;57.44
53754;BME280;39667;52.274;20.964;2022-07-01T02:45:45;100239.87;;;23.61;57.49
53754;BME280;39667;52.274;20.964;2022-07-01T02:48:12;100230.30;;;23.62;57.43
53754;BME280;39667;52.274;20.964;2022-07-01T02:50:38;100213.47;;;23.59;57.68
53754;BME280;39667;52.274;20.964;2022-07-01T02:53:05;100226.07;;;23.64;57.86
53754;BME280;39667;52.274;20.964;2022-07-01T02:55:37;100239.52;;;23.64;57.86
53754;BME280;39667;52.274;20.964;2022-07-01T02:58:03;100253.88;;;23.65;57.71
53754;BME280;39667;52.274;20.964;2022-07-01T03:00:30;100256.27;;;23.64;57.84
53754;BME280;39667;52.274;20.964;2022-07-01T03:02:57;100252.76;;;23.57;57.99
53754;BME280;39667;52.274;20.964;2022-07-01T03:05:23;100247.44;;;23.53;58.06
53754;BME280;39667;52.274;20.964;2022-07-01T03:07:49;100246.02;;;23.53;58.35
53754;BME280;39667;52.274;20.964;2022-07-01T03:10:16;100249.09;;;23.56;58.36
53754;BME280;39667;52.274;20.964;2022-07-01T03:12:42;100260.44;;;23.58;58.49
53754;BME280;39667;52.274;20.964;2022-07-01T03:15:09;100262.99;;;23.57;58.54
53754;BME280;39667;52.274;20.964;2022-07-01T03:17:38;100262.97;;;23.55;58.52
53754;BME280;39667;52.274;20.964;2022-07-01T03:20:06;100257.91;;;23.52;58.63
53754;BME280;39667;52.274;20.964;2022-07-01T03:22:34;100249.67;;;23.49;58.83
53754;BME280;39667;52.274;20.964;2022-07-01T03:25:01;100245.53;;;23.49;59.20
53754;BME280;39667;52.274;20.964;2022-07-01T03:27:29;100244.58;;;23.50;59.22
53754;BME280;39667;52.274;20.964;2022-07-01T03:29:56;100246.41;;;23.52;59.27
53754;BME280;39667;52.274;20.964;2022-07-01T03:32:22;100245.41;;;23.54;59.22
53754;BME280;39667;52.274;20.964;2022-07-01T03:34:51;100247.63;;;23.56;59.26
53754;BME280;39667;52.274;20.964;2022-07-01T03:37:18;100246.21;;;23.55;59.57
53754;BME280;39667;52.274;20.964;2022-07-01T03:39:46;100246.22;;;23.55;59.58
53754;BME280;39667;52.274;20.964;2022-07-01T03:42:12;100245.69;;;23.55;59.66
53754;BME280;39667;52.274;20.964;2022-07-01T03:44:38;100242.02;;;23.56;59.74
53754;BME280;39667;52.274;20.964;2022-07-01T03:47:06;100240.77;;;23.56;59.75
53754;BME280;39667;52.274;20.964;2022-07-01T03:49:34;100234.63;;;23.54;60.06
53754;BME280;39667;52.274;20.964;2022-07-01T03:52:03;100228.89;;;23.54;60.07
53754;BME280;39667;52.274;20.964;2022-07-01T03:54:30;100229.02;;;23.57;60.03
53754;BME280;39667;52.274;20.964;2022-07-01T03:57:00;100228.50;;;23.60;60.07
53754;BME280;39667;52.274;20.964;2022-07-01T03:59:27;100230.87;;;23.65;60.27
53754;BME280;39667;52.274;20.964;2022-07-01T04:01:55;100229.40;;;23.70;60.23
53754;BME280;39667;52.274;20.964;2022-07-01T04:04:22;100227.05;;;23.76;60.19
53754;BME280;39667;52.274;20.964;2022-07-01T04:06:49;100229.58;;;23.81;60.05
53754;BME280;39667;52.274;20.964;2022-07-01T04:09:17;100229.36;;;23.84;60.11
53754;BME280;39667;52.274;20.964;2022-07-01T04:11:46;100233.10;;;23.85;60.07
53754;BME280;39667;52.274;20.964;2022-07-01T04:14:14;100234.20;;;23.84;60.26
53754;BME280;39667;52.274;20.964;2022-07-01T04:16:41;100234.35;;;23.85;60.41
53754;BME280;39667;52.274;20.964;2022-07-01T04:19:08;100232.85;;;23.83;60.32
53754;BME280;39667;52.274;20.964;2022-07-01T04:21:36;100230.38;;;23.85;60.47
53754;BME280;39667;52.274;20.964;2022-07-01T04:24:21;100225.41;;;23.90;60.48
53754;BME280;39667;52.274;20.964;2022-07-01T04:26:51;100221.19;;;23.91;60.66
53754;BME280;39667;52.274;20.964;2022-07-01T04:29:18;100218.31;;;23.94;60.90
53754;BME280;39667;52.274;20.964;2022-07-01T04:31:45;100217.62;;;23.99;60.81
53754;BME280;39667;52.274;20.964;2022-07-01T04:34:11;100215.70;;;24.04;60.73
53754;BME280;39667;52.274;20.964;2022-07-01T04:36:38;100215.76;;;24.07;60.90
53754;BME280;39667;52.274;20.964;2022-07-01T04:39:05;100215.17;;;24.11;60.99
53754;BME280;39667;52.274;20.964;2022-07-01T04:41:32;100214.59;;;24.15;60.78
53754;BME280;39667;52.274;20.964;2022-07-01T04:44:17;100212.52;;;24.19;61.08
53754;BME280;39667;52.274;20.964;2022-07-01T04:46:44;100218.00;;;24.23;60.94
53754;BME280;39667;52.274;20.964;2022-07-01T04:49:10;100215.61;;;24.29;60.95
53754;BME280;39667;52.274;20.964;2022-07-01T04:51:37;100214.61;;;24.35;60.95
53754;BME280;39667;52.274;20.964;2022-07-01T04:54:05;100208.19;;;24.42;60.85
53754;BME280;39667;52.274;20.964;2022-07-01T04:56:33;100210.81;;;24.48;60.86
53754;BME280;39667;52.274;20.964;2022-07-01T04:59:00;100205.09;;;24.53;60.89
53754;BME280;39667;52.274;20.964;2022-07-01T05:01:27;100204.27;;;24.57;60.72
53754;BME280;39667;52.274;20.964;2022-07-01T05:03:55;100204.61;;;24.63;60.78
53754;BME280;39667;52.274;20.964;2022-07-01T05:06:21;100203.90;;;24.68;60.77
53754;BME280;39667;52.274;20.964;2022-07-01T05:08:47;100202.95;;;24.71;60.85
53754;BME280;39667;52.274;20.964;2022-07-01T05:11:14;100203.79;;;24.74;60.83
53754;BME280;39667;52.274;20.964;2022-07-01T05:13:40;100201.52;;;24.79;60.61
53754;BME280;39667;52.274;20.964;2022-07-01T05:16:06;100198.94;;;24.82;60.69
53754;BME280;39667;52.274;20.964;2022-07-01T05:18:38;100200.05;;;24.86;60.52
53754;BME280;39667;52.274;20.964;2022-07-01T05:21:24;100200.11;;;24.91;60.63
53754;BME280;39667;52.274;20.964;2022-07-01T05:24:14;100199.02;;;24.93;60.50
53754;BME280;39667;52.274;20.964;2022-07-01T05:30:54;100204.02;;;25.04;60.29
53754;BME280;39667;52.274;20.964;2022-07-01T05:33:20;100199.25;;;25.08;60.32
53754;BME280;39667;52.274;20.964;2022-07-01T05:35:50;100196.44;;;25.12;60.19
53754;BME280;39667;52.274;20.964;2022-07-01T05:38:16;100194.40;;;25.15;60.16
53754;BME280;39667;52.274;20.964;2022-07-01T05:40:42;100189.24;;;25.17;60.11
53754;BME280;39667;52.274;20.964;2022-07-01T05:47:33;100188.51;;;25.29;59.93
53754;BME280;39667;52.274;20.964;2022-07-01T05:57:48;100190.16;;;25.48;59.94
53754;BME280;39667;52.274;20.964;2022-07-01T06:00:14;100188.34;;;25.54;59.93
53754;BME280;39667;52.274;20.964;2022-07-01T06:06:22;100187.05;;;25.66;59.54
53754;BME280;39667;52.274;20.964;2022-07-01T06:08:48;100187.48;;;25.70;59.48
53754;BME280;39667;52.274;20.964;2022-07-01T06:11:15;100181.34;;;25.75;59.50
53754;BME280;39667;52.274;20.964;2022-07-01T06:13:41;100181.72;;;25.79;59.26
53754;BME280;39667;52.274;20.964;2022-07-01T06:16:07;100184.13;;;25.83;59.13
53754;BME280;39667;52.274;20.964;2022-07-01T06:18:34;100179.92;;;25.87;58.94
53754;BME280;39667;52.274;20.964;2022-07-01T06:21:00;100174.95;;;25.90;58.64
53754;BME280;39667;52.274;20.964;2022-07-01T06:23:26;100178.52;;;25.95;58.90
53754;BME280;39667;52.274;20.964;2022-07-01T06:25:53;100180.24;;;26.01;58.61
53754;BME280;39667;52.274;20.964;2022-07-01T06:28:19;100179.66;;;26.06;58.44
53754;BME280;39667;52.274;20.964;2022-07-01T06:30:45;100177.96;;;26.12;58.36
53754;BME280;39667;52.274;20.964;2022-07-01T06:33:13;100173.73;;;26.18;58.07
53754;BME280;39667;52.274;20.964;2022-07-01T06:35:40;100170.59;;;26.24;58.03
53754;BME280;39667;52.274;20.964;2022-07-01T06:38:07;100173.16;;;26.30;57.88
53754;BME280;39667;52.274;20.964;2022-07-01T06:40:33;100172.15;;;26.36;57.75
53754;BME280;39667;52.274;20.964;2022-07-01T06:42:59;100168.88;;;26.43;57.75
53754;BME280;39667;52.274;20.964;2022-07-01T06:45:25;100174.98;;;26.51;57.86
53754;BME280;39667;52.274;20.964;2022-07-01T06:47:51;100170.55;;;26.56;57.68
53754;BME280;39667;52.274;20.964;2022-07-01T06:50:17;100174.80;;;26.62;57.53
53754;BME280;39667;52.274;20.964;2022-07-01T06:52:44;100172.77;;;26.69;57.40
53754;BME280;39667;52.274;20.964;2022-07-01T06:55:10;100172.33;;;26.77;57.49
53754;BME280;39667;52.274;20.964;2022-07-01T06:57:36;100169.05;;;26.84;57.45
53754;BME280;39667;52.274;20.964;2022-07-01T07:00:03;100173.33;;;26.92;57.36
53754;BME280;39667;52.274;20.964;2022-07-01T07:02:29;100176.73;;;26.99;57.00
53754;BME280;39667;52.274;20.964;2022-07-01T07:04:56;100171.52;;;27.08;56.60
53754;BME280;39667;52.274;20.964;2022-07-01T07:07:28;100172.16;;;27.15;56.52
53754;BME280;39667;52.274;20.964;2022-07-01T07:09:54;100171.07;;;27.25;56.34
53754;BME280;39667;52.274;20.964;2022-07-01T07:12:22;100167.44;;;27.33;56.09
53754;BME280;39667;52.274;20.964;2022-07-01T07:14:48;100168.66;;;27.40;55.75
53754;BME280;39667;52.274;20.964;2022-07-01T07:17:14;100172.48;;;27.49;55.77
53754;BME280;39667;52.274;20.964;2022-07-01T07:19:40;100169.09;;;27.57;55.47
53754;BME280;39667;52.274;20.964;2022-07-01T07:22:07;100172.56;;;27.65;55.11
53754;BME280;39667;52.274;20.964;2022-07-01T07:24:33;100177.10;;;27.74;55.16
53754;BME280;39667;52.274;20.964;2022-07-01T07:27:00;100176.59;;;27.82;54.96
53754;BME280;39667;52.274;20.964;2022-07-01T07:29:26;100175.85;;;27.91;54.81
53754;BME280;39667;52.274;20.964;2022-07-01T07:31:53;100171.55;;;27.99;54.89
53754;BME280;39667;52.274;20.964;2022-07-01T07:34:19;100170.92;;;28.08;54.63
53754;BME280;39667;52.274;20.964;2022-07-01T07:36:46;100164.11;;;28.16;54.39
53754;BME280;39667;52.274;20.964;2022-07-01T07:39:13;100162.98;;;28.25;53.87
53754;BME280;39667;52.274;20.964;2022-07-01T07:41:39;100160.32;;;28.33;53.66
53754;BME280;39667;52.274;20.964;2022-07-01T07:44:05;100168.58;;;28.42;53.62
53754;BME280;39667;52.274;20.964;2022-07-01T07:46:31;100165.48;;;28.50;53.42
53754;BME280;39667;52.274;20.964;2022-07-01T07:48:57;100160.18;;;28.60;53.21
53754;BME280;39667;52.274;20.964;2022-07-01T07:51:23;100161.41;;;28.70;53.07
53754;BME280;39667;52.274;20.964;2022-07-01T07:53:52;100154.23;;;28.80;52.77
53754;BME280;39667;52.274;20.964;2022-07-01T07:56:18;100158.48;;;28.91;52.57
53754;BME280;39667;52.274;20.964;2022-07-01T07:58:46;100153.91;;;29.02;52.13
53754;BME280;39667;52.274;20.964;2022-07-01T08:01:12;100147.52;;;29.12;52.25
53754;BME280;39667;52.274;20.964;2022-07-01T08:03:39;100147.16;;;29.24;52.11
53754;BME280;39667;52.274;20.964;2022-07-01T08:06:05;100146.20;;;29.37;51.51
53754;BME280;39667;52.274;20.964;2022-07-01T08:08:32;100149.52;;;29.50;51.33
53754;BME280;39667;52.274;20.964;2022-07-01T08:10:58;100147.82;;;29.63;51.15
53754;BME280;39667;52.274;20.964;2022-07-01T08:13:25;100147.61;;;29.75;50.63
53754;BME280;39667;52.274;20.964;2022-07-01T08:15:51;100149.35;;;29.89;50.47
53754;BME280;39667;52.274;20.964;2022-07-01T08:18:17;100147.30;;;30.03;50.25
53754;BME280;39667;52.274;20.964;2022-07-01T08:20:44;100150.33;;;30.15;49.75
53754;BME280;39667;52.274;20.964;2022-07-01T08:23:12;100153.41;;;30.31;49.16
53754;BME280;39667;52.274;20.964;2022-07-01T08:25:39;100157.44;;;30.44;48.38
53754;BME280;39667;52.274;20.964;2022-07-01T08:28:05;100158.86;;;30.56;47.97
53754;BME280;39667;52.274;20.964;2022-07-01T08:30:31;100159.11;;;30.70;47.15
53754;BME280;39667;52.274;20.964;2022-07-01T08:32:58;100160.19;;;30.83;46.69
53754;BME280;39667;52.274;20.964;2022-07-01T08:35:24;100159.63;;;30.97;46.52
53754;BME280;39667;52.274;20.964;2022-07-01T08:37:50;100157.77;;;31.12;46.47
53754;BME280;39667;52.274;20.964;2022-07-01T08:40:16;100154.14;;;31.24;45.91
53754;BME280;39667;52.274;20.964;2022-07-01T08:42:45;100151.27;;;31.37;45.80
53754;BME280;39667;52.274;20.964;2022-07-01T08:45:11;100154.39;;;31.51;45.55
53754;BME280;39667;52.274;20.964;2022-07-01T08:47:54;100154.31;;;31.66;44.73
53754;BME280;39667;52.274;20.964;2022-07-01T08:50:27;100147.76;;;31.79;43.57
53754;BME280;39667;52.274;20.964;2022-07-01T08:52:53;100149.50;;;31.90;43.13
53754;BME280;39667;52.274;20.964;2022-07-01T08:55:21;100149.67;;;32.01;42.37
53754;BME280;39667;52.274;20.964;2022-07-01T08:57:48;100154.95;;;32.12;41.56
53754;BME280;39667;52.274;20.964;2022-07-01T09:00:15;100145.98;;;32.18;41.01
53754;BME280;39667;52.274;20.964;2022-07-01T09:02:51;100146.84;;;32.25;41.12
53754;BME280;39667;52.274;20.964;2022-07-01T09:05:23;100144.30;;;32.37;41.31
53754;BME280;39667;52.274;20.964;2022-07-01T09:08:05;100142.52;;;32.53;41.38
53754;BME280;39667;52.274;20.964;2022-07-01T09:10:33;100140.40;;;32.71;40.90
53754;BME280;39667;52.274;20.964;2022-07-01T09:13:07;100140.89;;;32.87;40.38
53754;BME280;39667;52.274;20.964;2022-07-01T09:15:34;100140.86;;;32.96;39.97
53754;BME280;39667;52.274;20.964;2022-07-01T09:18:12;100133.17;;;33.06;39.35
53754;BME280;39667;52.274;20.964;2022-07-01T09:20:41;100133.52;;;33.15;39.31
53754;BME280;39667;52.274;20.964;2022-07-01T09:23:11;100127.98;;;33.24;38.94
53754;BME280;39667;52.274;20.964;2022-07-01T09:25:48;100127.52;;;33.33;39.05
53754;BME280;39667;52.274;20.964;2022-07-01T09:28:26;100127.09;;;33.47;39.17
53754;BME280;39667;52.274;20.964;2022-07-01T09:30:55;100129.92;;;33.60;39.08
53754;BME280;39667;52.274;20.964;2022-07-01T09:33:27;100131.61;;;33.73;39.10
53754;BME280;39667;52.274;20.964;2022-07-01T09:35:55;100129.08;;;33.82;38.51
53754;BME280;39667;52.274;20.964;2022-07-01T09:38:24;100123.11;;;33.85;38.22
53754;BME280;39667;52.274;20.964;2022-07-01T09:41:03;100125.41;;;33.93;38.10
53754;BME280;39667;52.274;20.964;2022-07-01T09:43:34;100121.45;;;34.00;37.79
53754;BME280;39667;52.274;20.964;2022-07-01T09:46:11;100120.84;;;34.04;37.53
53754;BME280;39667;52.274;20.964;2022-07-01T09:51:05;100118.11;;;34.20;36.89
53754;BME280;39667;52.274;20.964;2022-07-01T09:53:40;100117.11;;;34.31;36.90
53754;BME280;39667;52.274;20.964;2022-07-01T09:56:06;100111.77;;;34.44;36.71
53754;BME280;39667;52.274;20.964;2022-07-01T09:58:33;100120.47;;;34.54;36.17
53754;BME280;39667;52.274;20.964;2022-07-01T10:01:02;100113.96;;;34.65;35.92
53754;BME280;39667;52.274;20.964;2022-07-01T10:03:31;100116.95;;;34.75;35.77
53754;BME280;39667;52.274;20.964;2022-07-01T10:06:24;100121.36;;;34.83;35.72
53754;BME280;39667;52.274;20.964;2022-07-01T10:09:38;100125.92;;;34.88;35.34
53754;BME280;39667;52.274;20.964;2022-07-01T10:12:30;100127.11;;;34.92;35.32
53754;BME280;39667;52.274;20.964;2022-07-01T10:14:58;100128.80;;;35.00;35.39
53754;BME280;39667;52.274;20.964;2022-07-01T10:17:37;100128.73;;;35.11;35.24
53754;BME280;39667;52.274;20.964;2022-07-01T10:20:18;100132.58;;;35.27;35.21
53754;BME280;39667;52.274;20.964;2022-07-01T10:22:50;100134.66;;;35.42;34.69
53754;BME280;39667;52.274;20.964;2022-07-01T10:25:40;100134.27;;;35.44;34.04
53754;BME280;39667;52.274;20.964;2022-07-01T10:30:52;100131.52;;;35.48;33.78
53754;BME280;39667;52.274;20.964;2022-07-01T10:41:36;100130.81;;;35.79;33.04
53754;BME280;39667;52.274;20.964;2022-07-01T10:44:09;100129.02;;;35.79;32.05
53754;BME280;39667;52.274;20.964;2022-07-01T10:49:20;100119.77;;;35.82;31.48
53754;BME280;39667;52.274;20.964;2022-07-01T10:59:56;100115.89;;;36.08;30.97
53754;BME280;39667;52.274;20.964;2022-07-01T11:02:36;100111.44;;;36.16;30.91
53754;BME280;39667;52.274;20.964;2022-07-01T11:05:17;100106.77;;;36.22;30.83
53754;BME280;39667;52.274;20.964;2022-07-01T11:07:45;100111.36;;;36.34;30.29
53754;BME280;39667;52.274;20.964;2022-07-01T11:10:26;100104.64;;;36.42;30.35
53754;BME280;39667;52.274;20.964;2022-07-01T11:12:52;100105.58;;;36.50;30.05
53754;BME280;39667;52.274;20.964;2022-07-01T11:15:20;100099.15;;;36.53;29.94
53754;BME280;39667;52.274;20.964;2022-07-01T11:17:49;100094.52;;;36.62;29.43
53754;BME280;39667;52.274;20.964;2022-07-01T11:20:16;100095.41;;;36.67;28.54
53754;BME280;39667;52.274;20.964;2022-07-01T11:22:49;100088.63;;;36.69;28.37
53754;BME280;39667;52.274;20.964;2022-07-01T11:25:17;100086.56;;;36.79;28.71
53754;BME280;39667;52.274;20.964;2022-07-01T11:27:49;100086.39;;;36.88;28.64
53754;BME280;39667;52.274;20.964;2022-07-01T11:30:17;100085.52;;;36.85;28.14
53754;BME280;39667;52.274;20.964;2022-07-01T11:32:57;100084.24;;;36.80;28.24
53754;BME280;39667;52.274;20.964;2022-07-01T11:35:29;100082.10;;;36.94;28.61
53754;BME280;39667;52.274;20.964;2022-07-01T11:38:17;100077.61;;;37.08;28.39
53754;BME280;39667;52.274;20.964;2022-07-01T11:41:24;100073.60;;;37.18;27.76
53754;BME280;39667;52.274;20.964;2022-07-01T11:43:51;100067.95;;;37.21;27.21
53754;BME280;39667;52.274;20.964;2022-07-01T11:46:18;100058.02;;;37.19;27.63
53754;BME280;39667;52.274;20.964;2022-07-01T11:48:50;100054.58;;;37.25;28.02
53754;BME280;39667;52.274;20.964;2022-07-01T11:53:46;100052.23;;;37.46;27.94
53754;BME280;39667;52.274;20.964;2022-07-01T11:56:15;100046.66;;;37.59;27.66
53754;BME280;39667;52.274;20.964;2022-07-01T12:03:50;100045.58;;;37.64;27.34
53754;BME280;39667;52.274;20.964;2022-07-01T12:06:18;100046.44;;;37.75;27.43
53754;BME280;39667;52.274;20.964;2022-07-01T12:08:46;100039.82;;;37.88;27.44
53754;BME280;39667;52.274;20.964;2022-07-01T12:11:15;100040.33;;;38.08;27.41
53754;BME280;39667;52.274;20.964;2022-07-01T12:13:44;100037.47;;;38.29;27.14
53754;BME280;39667;52.274;20.964;2022-07-01T12:16:12;100045.11;;;38.46;26.66
53754;BME280;39667;52.274;20.964;2022-07-01T12:18:50;100048.29;;;38.57;26.21
53754;BME280;39667;52.274;20.964;2022-07-01T12:21:16;100041.16;;;38.58;25.59
53754;BME280;39667;52.274;20.964;2022-07-01T12:24:11;100039.72;;;38.58;25.37
53754;BME280;39667;52.274;20.964;2022-07-01T12:27:03;100038.65;;;38.53;25.31
53754;BME280;39667;52.274;20.964;2022-07-01T12:29:52;100047.10;;;38.59;25.42
53754;BME280;39667;52.274;20.964;2022-07-01T12:32:27;100038.41;;;38.63;24.92
53754;BME280;39667;52.274;20.964;2022-07-01T12:35:00;100035.45;;;38.65;24.81
53754;BME280;39667;52.274;20.964;2022-07-01T12:37:32;100033.70;;;38.70;24.87
53754;BME280;39667;52.274;20.964;2022-07-01T12:40:19;100030.61;;;38.80;25.56
53754;BME280;39667;52.274;20.964;2022-07-01T12:42:47;100024.39;;;38.94;25.41
53754;BME280;39667;52.274;20.964;2022-07-01T12:45:16;100023.11;;;39.02;25.95
53754;BME280;39667;52.274;20.964;2022-07-01T12:47:46;100023.48;;;39.18;25.01
53754;BME280;39667;52.274;20.964;2022-07-01T12:50:17;100019.59;;;39.11;24.91
53754;BME280;39667;52.274;20.964;2022-07-01T12:53:09;100003.56;;;39.10;25.43
53754;BME280;39667;52.274;20.964;2022-07-01T12:55:38;100013.17;;;39.10;24.84
53754;BME280;39667;52.274;20.964;2022-07-01T12:58:27;100014.71;;;39.12;24.75
53754;BME280;39667;52.274;20.964;2022-07-01T13:00:56;100017.19;;;39.20;23.89
53754;BME280;39667;52.274;20.964;2022-07-01T13:03:27;100013.05;;;39.09;23.81
53754;BME280;39667;52.274;20.964;2022-07-01T13:05:56;100004.65;;;39.13;24.26
53754;BME280;39667;52.274;20.964;2022-07-01T13:08:24;99997.51;;;39.19;24.43
53754;BME280;39667;52.274;20.964;2022-07-01T13:10:51;100008.39;;;39.28;24.51
53754;BME280;39667;52.274;20.964;2022-07-01T13:13:19;100007.16;;;39.22;24.38
53754;BME280;39667;52.274;20.964;2022-07-01T13:15:47;100008.26;;;39.34;24.32
53754;BME280;39667;52.274;20.964;2022-07-01T13:18:14;100006.02;;;39.46;24.18
53754;BME280;39667;52.274;20.964;2022-07-01T13:20:45;100009.42;;;39.44;23.88
53754;BME280;39667;52.274;20.964;2022-07-01T13:23:14;100006.82;;;39.51;24.09
53754;BME280;39667;52.274;20.964;2022-07-01T13:25:41;100004.94;;;39.66;23.97
53754;BME280;39667;52.274;20.964;2022-07-01T13:28:08;100011.52;;;39.75;24.02
53754;BME280;39667;52.274;20.964;2022-07-01T13:30:35;100009.17;;;39.82;23.89
53754;BME280;39667;52.274;20.964;2022-07-01T13:33:04;100007.25;;;39.76;23.81
53754;BME280;39667;52.274;20.964;2022-07-01T13:35:31;100002.74;;;39.77;24.22
53754;BME280;39667;52.274;20.964;2022-07-01T13:37:57;100000.83;;;39.85;24.42
53754;BME280;39667;52.274;20.964;2022-07-01T13:40:24;100005.22;;;40.09;24.15
53754;BME280;39667;52.274;20.964;2022-07-01T13:42:51;100005.13;;;40.20;23.54
53754;BME280;39667;52.274;20.964;2022-07-01T13:45:17;100001.64;;;40.20;23.56
53754;BME280;39667;52.274;20.964;2022-07-01T13:47:44;99996.77;;;40.18;23.43
53754;BME280;39667;52.274;20.964;2022-07-01T13:50:10;99994.39;;;40.17;23.53
53754;BME280;39667;52.274;20.964;2022-07-01T13:52:38;99985.77;;;40.11;23.52
53754;BME280;39667;52.274;20.964;2022-07-01T13:55:12;99989.23;;;40.12;23.86
53754;BME280;39667;52.274;20.964;2022-07-01T13:57:40;99982.02;;;40.22;23.85
53754;BME280;39667;52.274;20.964;2022-07-01T14:00:07;99985.63;;;40.30;23.74
53754;BME280;39667;52.274;20.964;2022-07-01T14:02:34;99980.27;;;40.46;23.55
53754;BME280;39667;52.274;20.964;2022-07-01T14:05:00;99986.99;;;40.60;23.28